createdAt,value
2018-11-23T00:01:54.355Z,79.10
2018-11-23T00:07:35.581Z,78.80
2018-11-23T00:10:24.335Z,78.80
2018-11-23T00:13:12.024Z,78.90
2018-11-23T00:15:59.605Z,79.30
2018-11-23T00:18:47.209Z,79.30
2018-11-23T00:21:27.470Z,79.30
2018-11-23T00:24:07.977Z,78.80
2018-11-23T00:26:48.565Z,79.00
2018-11-23T00:29:29.923Z,79.30
2018-11-23T00:32:10.163Z,79.60
2018-11-23T00:34:50.848Z,79.70
2018-11-23T00:37:31.722Z,79.40
2018-11-23T00:40:13.071Z,78.50
2018-11-23T00:42:54.335Z,78.70
2018-11-23T00:45:35.663Z,78.50
2018-11-23T00:48:15.939Z,79.70
2018-11-23T00:50:56.924Z,79.10
2018-11-23T00:53:37.281Z,79.20
2018-11-23T00:56:17.669Z,79.40
2018-11-23T00:58:58.028Z,79.90
2018-11-23T01:01:57.726Z,80.10
2018-11-23T01:04:38.601Z,80.60
2018-11-23T01:07:19.638Z,81.00
2018-11-23T01:10:00.118Z,81.40
2018-11-23T01:12:40.504Z,81.60
2018-11-23T01:15:20.921Z,81.60
2018-11-23T01:18:01.414Z,81.20
2018-11-23T01:20:41.703Z,81.50
2018-11-23T01:23:21.961Z,80.70
2018-11-23T01:26:02.223Z,80.60
2018-11-23T01:28:43.345Z,80.50
2018-11-23T01:31:24.352Z,81.10
2018-11-23T01:34:05.340Z,81.40
2018-11-23T01:36:46.144Z,81.50
2018-11-23T01:39:26.660Z,81.70
2018-11-23T01:42:07.535Z,81.60
2018-11-23T01:44:51.590Z,82.20
2018-11-23T01:47:32.442Z,82.10
2018-11-23T01:50:14.581Z,82.30
2018-11-23T01:52:55.043Z,82.30
2018-11-23T01:55:35.789Z,83.00
2018-11-23T01:58:16.069Z,83.00
2018-11-23T02:00:56.998Z,82.90
2018-11-23T02:03:37.270Z,82.30
2018-11-23T02:06:17.433Z,82.50
2018-11-23T02:08:57.978Z,82.70
2018-11-23T02:11:38.292Z,82.90
2018-11-23T02:14:18.720Z,83.30
2018-11-23T02:16:59.089Z,83.10
2018-11-23T02:19:39.449Z,83.00
2018-11-23T02:22:19.974Z,83.10
2018-11-23T02:25:00.314Z,83.20
2018-11-23T02:27:40.813Z,83.10
2018-11-23T02:30:23.237Z,83.10
2018-11-23T02:33:04.014Z,82.70
2018-11-23T02:35:44.617Z,83.50
2018-11-23T02:38:24.949Z,83.50
2018-11-23T02:41:05.325Z,83.50
2018-11-23T02:43:46.470Z,83.70
2018-11-23T02:46:27.080Z,83.20
2018-11-23T02:49:07.980Z,82.90
2018-11-23T02:51:49.100Z,82.70
2018-11-23T02:54:29.711Z,82.30
2018-11-23T02:57:10.413Z,83.30
2018-11-23T02:59:50.985Z,83.50
2018-11-23T03:02:31.945Z,83.40
2018-11-23T03:05:13.565Z,83.30
2018-11-23T03:07:54.237Z,82.90
2018-11-23T03:10:35.281Z,82.80
2018-11-23T03:13:15.640Z,82.60
2018-11-23T03:15:55.882Z,82.10
2018-11-23T03:18:36.237Z,82.40
2018-11-23T03:21:16.756Z,82.40
2018-11-23T03:23:57.283Z,82.70
2018-11-23T03:26:37.777Z,82.80
2018-11-23T03:29:18.193Z,83.50
2018-11-23T03:31:46.771Z,83.70
2018-11-23T03:34:14.861Z,84.00
2018-11-23T03:37:02.450Z,84.10
2018-11-23T03:39:50.035Z,84.00
2018-11-23T03:42:37.662Z,84.00
2018-11-23T03:45:25.246Z,84.20
2018-11-23T03:48:12.845Z,84.40
2018-11-23T03:51:00.440Z,84.50
2018-11-23T03:53:48.014Z,84.80
2018-11-23T03:56:35.866Z,84.30
2018-11-23T03:59:23.533Z,84.10
2018-11-23T04:02:11.125Z,83.70
2018-11-23T04:04:58.724Z,83.60
2018-11-23T04:07:46.499Z,83.90
2018-11-23T04:10:34.080Z,84.40
2018-11-23T04:13:21.657Z,84.30
2018-11-23T04:16:09.261Z,84.60
2018-11-23T04:18:56.858Z,85.10
2018-11-23T04:21:44.445Z,84.80
2018-11-23T04:24:32.167Z,84.50
2018-11-23T04:27:19.742Z,83.70
2018-11-23T04:30:10.917Z,83.20
2018-11-23T04:32:58.768Z,83.10
2018-11-23T04:35:46.375Z,84.00
2018-11-23T04:41:46.288Z,84.60
2018-11-23T04:44:28.521Z,84.10
2018-11-23T04:50:14.117Z,84.80
2018-11-23T04:56:19.444Z,84.90
2018-11-23T04:58:47.537Z,85.30
2018-11-23T05:01:15.630Z,85.50
2018-11-23T05:03:43.741Z,85.00
2018-11-23T05:06:11.899Z,85.10
2018-11-23T05:08:39.990Z,85.10
2018-11-23T05:11:08.096Z,85.10
2018-11-23T05:13:36.172Z,85.20
2018-11-23T05:16:04.557Z,85.60
2018-11-23T05:18:32.644Z,85.90
2018-11-23T05:21:00.776Z,85.90
2018-11-23T05:23:29.056Z,85.80
2018-11-23T05:25:57.141Z,86.00
2018-11-23T05:28:25.227Z,85.90
2018-11-23T05:30:53.320Z,86.10
2018-11-23T05:33:21.432Z,86.10
2018-11-23T05:35:49.532Z,86.40
2018-11-23T05:38:17.977Z,86.90
2018-11-23T05:40:46.125Z,86.40
2018-11-23T05:43:14.291Z,86.30
2018-11-23T05:45:42.605Z,86.20
2018-11-23T05:48:11.132Z,86.20
2018-11-23T05:50:39.385Z,86.20
2018-11-23T05:53:07.498Z,86.40
2018-11-23T05:55:35.614Z,86.40
2018-11-23T05:58:03.711Z,86.50
2018-11-23T06:00:32.630Z,86.40
2018-11-23T06:03:00.744Z,85.80
2018-11-23T06:05:28.883Z,85.60
2018-11-23T06:07:57.114Z,85.60
2018-11-23T06:10:25.205Z,85.60
2018-11-23T06:12:53.316Z,85.60
2018-11-23T06:15:22.688Z,85.60
2018-11-23T06:17:51.005Z,85.70
2018-11-23T06:20:20.882Z,86.00
2018-11-23T06:22:49.895Z,85.80
2018-11-23T06:25:24.245Z,85.80
2018-11-23T06:27:52.518Z,85.80
2018-11-23T06:30:20.652Z,86.30
2018-11-23T06:33:00.252Z,86.70
2018-11-23T06:35:28.404Z,86.50
2018-11-23T06:37:56.529Z,86.40
2018-11-23T06:40:24.640Z,86.50
2018-11-23T06:42:52.756Z,86.30
2018-11-23T06:45:21.284Z,86.10
2018-11-23T06:47:49.389Z,86.10
2018-11-23T06:50:17.505Z,86.30
2018-11-23T06:52:45.618Z,86.10
2018-11-23T06:55:13.738Z,86.00
2018-11-23T06:57:42.233Z,85.90
2018-11-23T07:00:12.887Z,85.80
2018-11-23T07:02:41.454Z,85.50
2018-11-23T07:05:10.138Z,85.10
2018-11-23T07:07:38.246Z,85.10
2018-11-23T07:10:07.861Z,85.10
2018-11-23T07:12:36.232Z,85.10
2018-11-23T07:15:04.495Z,84.60
2018-11-23T07:17:32.624Z,84.30
2018-11-23T07:20:00.728Z,84.30
2018-11-23T07:22:28.863Z,84.30
2018-11-23T07:24:56.954Z,83.90
2018-11-23T07:27:25.056Z,84.40
2018-11-23T07:29:53.229Z,83.00
2018-11-23T07:32:21.319Z,83.10
2018-11-23T07:34:49.463Z,82.90
2018-11-23T07:37:17.564Z,82.70
2018-11-23T07:40:56.169Z,83.20
2018-11-23T07:43:24.281Z,83.30
2018-11-23T07:45:52.376Z,83.90
2018-11-23T07:48:20.553Z,82.90
2018-11-23T07:50:48.738Z,83.10
2018-11-23T07:53:16.899Z,83.20
2018-11-23T07:55:45.040Z,82.80
2018-11-23T07:58:13.180Z,82.80
2018-11-23T08:00:41.346Z,82.30
2018-11-23T08:03:09.500Z,81.40
2018-11-23T08:05:37.633Z,81.40
2018-11-23T08:08:06.097Z,81.00
2018-11-23T08:10:33.541Z,81.30
2018-11-23T08:13:01.798Z,80.70
2018-11-23T08:15:30.008Z,80.60
2018-11-23T08:17:58.197Z,80.70
2018-11-23T08:20:26.690Z,80.70
2018-11-23T08:22:54.881Z,80.00
2018-11-23T08:25:24.197Z,80.10
2018-11-23T08:27:53.767Z,80.00
2018-11-23T08:30:23.518Z,80.00
2018-11-23T08:32:51.741Z,79.50
2018-11-23T08:35:19.901Z,79.10
2018-11-23T08:37:48.082Z,79.30
2018-11-23T08:40:18.521Z,78.60
2018-11-23T08:42:47.645Z,78.80
2018-11-23T08:45:17.379Z,78.00
2018-11-23T08:47:45.500Z,77.30
2018-11-23T08:50:18.221Z,77.00
2018-11-23T08:52:46.338Z,75.80
2018-11-23T08:55:15.370Z,76.10
2018-11-23T08:57:43.738Z,75.50
2018-11-23T09:00:14.800Z,76.10
2018-11-23T09:02:43.966Z,75.60
2018-11-23T09:05:12.096Z,75.40
2018-11-23T09:07:40.286Z,74.50
2018-11-23T09:10:11.063Z,74.00
2018-11-23T09:12:39.189Z,73.20
2018-11-23T09:15:09.375Z,73.60
2018-11-23T09:17:37.600Z,73.10
2018-11-23T09:20:07.385Z,73.50
2018-11-23T09:22:35.482Z,73.10
2018-11-23T09:25:03.624Z,72.60
2018-11-23T09:27:31.744Z,72.30
2018-11-23T09:29:59.885Z,72.20
2018-11-23T09:32:28.074Z,70.50
2018-11-23T09:34:56.253Z,70.40
2018-11-23T09:37:24.410Z,68.60
2018-11-23T09:39:52.677Z,65.20
2018-11-23T09:42:20.859Z,62.00
2018-11-23T09:44:49.055Z,60.90
2018-11-23T09:47:17.196Z,58.60
2018-11-23T09:49:45.359Z,59.30
2018-11-23T09:52:13.588Z,58.10
2018-11-23T09:54:41.793Z,58.40
2018-11-23T09:57:09.961Z,57.10
2018-11-23T09:59:38.140Z,56.70
2018-11-23T10:02:06.313Z,57.00
2018-11-23T10:04:34.460Z,56.40
2018-11-23T10:07:02.617Z,53.80
2018-11-23T10:09:30.764Z,53.10
2018-11-23T10:11:58.888Z,53.30
2018-11-23T10:14:27.010Z,52.60
2018-11-23T10:16:55.181Z,53.40
2018-11-23T10:19:33.471Z,51.50
2018-11-23T10:22:01.609Z,46.80
2018-11-23T10:24:29.768Z,45.10
2018-11-23T10:26:57.950Z,42.30
2018-11-23T10:29:26.084Z,42.30
2018-11-23T10:31:54.278Z,43.10
2018-11-23T10:34:22.487Z,42.40
2018-11-23T10:36:50.630Z,39.10
2018-11-23T10:39:18.812Z,40.80
2018-11-23T10:41:46.979Z,40.00
2018-11-23T10:44:15.136Z,37.70
2018-11-23T10:46:43.478Z,29.80
2018-11-23T10:49:11.635Z,27.50
2018-11-23T10:51:39.784Z,20.10
2018-11-23T10:54:07.988Z,19.70
2018-11-23T10:56:36.157Z,22.20
2018-11-23T10:59:04.824Z,23.20
2018-11-23T11:01:38.474Z,25.10
2018-11-23T11:04:12.137Z,25.90
2018-11-23T11:06:45.841Z,27.70
2018-11-23T11:09:14.016Z,25.30
2018-11-23T11:11:42.649Z,26.00
2018-11-23T11:14:10.808Z,25.20
2018-11-23T11:16:38.982Z,23.30
2018-11-23T11:19:07.628Z,22.60
2018-11-23T11:21:35.800Z,22.20
2018-11-23T11:24:04.306Z,22.50
2018-11-23T11:26:32.457Z,23.60
2018-11-23T11:29:00.617Z,23.70
2018-11-23T11:31:29.009Z,24.70
2018-11-23T11:33:57.218Z,22.60
2018-11-23T11:36:25.429Z,22.10
2018-11-23T11:38:53.565Z,22.00
2018-11-23T11:41:21.749Z,22.10
2018-11-23T11:43:49.870Z,24.20
2018-11-23T11:46:18.045Z,26.10
2018-11-23T11:48:46.197Z,26.30
2018-11-23T11:51:14.761Z,27.80
2018-11-23T11:53:42.578Z,28.00
2018-11-23T11:56:10.760Z,27.80
2018-11-23T11:58:38.912Z,28.60
2018-11-23T12:01:07.205Z,28.10
2018-11-23T12:03:35.349Z,26.30
2018-11-23T12:06:03.565Z,28.10
2018-11-23T12:08:31.696Z,27.90
2018-11-23T12:10:59.888Z,27.00
2018-11-23T12:13:28.093Z,27.90
2018-11-23T12:15:56.262Z,28.00
2018-11-23T12:18:24.413Z,26.90
2018-11-23T12:20:52.594Z,27.40
2018-11-23T12:23:20.838Z,28.30
2018-11-23T12:25:49.028Z,29.10
2018-11-23T12:28:17.186Z,30.30
2018-11-23T12:30:45.391Z,30.40
2018-11-23T12:33:13.536Z,29.40
2018-11-23T12:35:41.691Z,29.40
2018-11-23T12:38:09.895Z,29.00
2018-11-23T12:40:38.080Z,30.00
2018-11-23T12:43:06.220Z,29.30
2018-11-23T12:45:34.484Z,29.00
2018-11-23T12:48:02.623Z,28.20
2018-11-23T12:50:30.775Z,26.70
2018-11-23T12:53:06.182Z,26.90
2018-11-23T12:55:27.136Z,26.40
2018-11-23T12:57:55.293Z,26.00
2018-11-23T13:00:25.656Z,26.10
2018-11-23T13:02:55.201Z,25.50
2018-11-23T13:05:24.383Z,22.20
2018-11-23T13:07:53.400Z,21.10
2018-11-23T13:10:22.335Z,19.30
2018-11-23T13:12:51.051Z,20.80
2018-11-23T13:15:18.700Z,20.40
2018-11-23T13:17:46.848Z,21.70
2018-11-23T13:20:15.731Z,22.80
2018-11-23T13:22:43.972Z,23.60
2018-11-23T13:25:14.717Z,24.60
2018-11-23T13:27:42.961Z,23.60
2018-11-23T13:30:15.901Z,23.50
2018-11-23T13:32:44.241Z,25.90
2018-11-23T13:35:14.188Z,25.40
2018-11-23T13:37:42.581Z,25.30
2018-11-23T13:40:13.318Z,26.20
2018-11-23T13:42:41.634Z,28.30
2018-11-23T13:45:11.462Z,29.70
2018-11-23T13:47:39.622Z,31.00
2018-11-23T13:50:10.173Z,33.00
2018-11-23T13:52:38.352Z,33.80
2018-11-23T13:55:07.160Z,34.30
2018-11-23T13:57:35.446Z,36.30
2018-11-23T14:00:04.341Z,37.30
2018-11-23T14:02:32.520Z,37.80
2018-11-23T14:05:00.726Z,38.50
2018-11-23T14:07:29.048Z,38.80
2018-11-23T14:09:57.357Z,39.20
2018-11-23T14:12:25.496Z,40.60
2018-11-23T14:14:53.642Z,42.10
2018-11-23T14:17:21.874Z,43.00
2018-11-23T14:19:50.150Z,44.00
2018-11-23T14:22:18.307Z,45.00
2018-11-23T14:24:46.496Z,45.40
2018-11-23T14:27:14.667Z,46.10
2018-11-23T14:29:42.799Z,47.20
2018-11-23T14:32:11.373Z,47.90
2018-11-23T14:34:39.657Z,48.10
2018-11-23T14:37:07.901Z,48.70
2018-11-23T14:39:36.280Z,49.00
2018-11-23T14:42:05.389Z,49.80
2018-11-23T14:44:33.616Z,50.20
2018-11-23T14:47:01.913Z,51.00
2018-11-23T14:49:30.205Z,51.60
2018-11-23T14:51:58.831Z,51.80
2018-11-23T14:54:27.097Z,52.00
2018-11-23T14:56:55.413Z,52.40
2018-11-23T14:59:23.672Z,52.70
2018-11-23T15:01:52.240Z,52.80
2018-11-23T15:04:20.114Z,53.00
2018-11-23T15:06:48.357Z,53.00
2018-11-23T15:09:16.683Z,53.80
2018-11-23T15:11:45.128Z,54.00
2018-11-23T15:14:13.501Z,54.40
2018-11-23T15:16:41.860Z,54.80
2018-11-23T15:19:10.057Z,55.00
2018-11-23T15:21:38.289Z,55.10
2018-11-23T15:24:06.542Z,55.30
2018-11-23T15:26:34.773Z,55.70
2018-11-23T15:29:02.949Z,55.70
2018-11-23T15:31:31.111Z,56.30
2018-11-23T15:34:00.162Z,56.60
2018-11-23T15:36:28.349Z,56.30
2018-11-23T15:38:56.565Z,56.90
2018-11-23T15:41:24.753Z,57.40
2018-11-23T15:43:52.985Z,57.20
2018-11-23T15:46:21.201Z,57.20
2018-11-23T15:48:49.522Z,58.00
2018-11-23T15:51:17.649Z,57.40
2018-11-23T15:53:45.897Z,57.80
2018-11-23T15:56:14.044Z,57.80
2018-11-23T15:58:42.206Z,57.90
2018-11-23T16:01:10.603Z,58.40
2018-11-23T16:03:38.750Z,58.50
2018-11-23T16:06:06.878Z,59.40
2018-11-23T16:08:35.057Z,59.90
2018-11-23T16:11:03.204Z,59.80
2018-11-23T16:13:31.357Z,60.40
2018-11-23T16:15:59.510Z,60.50
2018-11-23T16:18:27.748Z,60.80
2018-11-23T16:20:55.900Z,61.20
2018-11-23T16:23:24.099Z,61.80
2018-11-23T16:25:52.630Z,62.40
2018-11-23T16:28:20.830Z,62.60
2018-11-23T16:30:51.157Z,62.40
2018-11-23T16:33:20.938Z,62.50
2018-11-23T16:35:49.129Z,63.20
2018-11-23T16:38:18.734Z,63.40
2018-11-23T16:40:48.546Z,63.20
2018-11-23T16:43:16.944Z,63.00
2018-11-23T16:45:45.598Z,63.00
2018-11-23T16:48:14.508Z,64.20
2018-11-23T16:50:43.084Z,63.90
2018-11-23T16:53:11.308Z,64.60
2018-11-23T16:55:39.446Z,64.90
2018-11-23T16:58:10.743Z,65.50
2018-11-23T17:00:39.890Z,65.40
2018-11-23T17:03:10.757Z,65.80
2018-11-23T17:05:40.424Z,65.80
2018-11-23T17:08:09.240Z,65.90
2018-11-23T17:10:37.441Z,65.00
2018-11-23T17:13:05.657Z,65.00
2018-11-23T17:15:33.834Z,65.60
2018-11-23T17:18:01.983Z,66.80
2018-11-23T17:20:31.417Z,67.50
2018-11-23T17:23:00.707Z,67.30
2018-11-23T17:25:29.714Z,67.40
2018-11-23T17:27:59.325Z,67.60
2018-11-23T17:30:28.746Z,69.70
2018-11-23T17:32:57.038Z,70.50
2018-11-23T17:35:25.471Z,71.30
2018-11-23T17:37:53.629Z,70.40
2018-11-23T17:40:23.961Z,69.90
2018-11-23T17:42:52.236Z,72.00
2018-11-23T17:45:23.088Z,70.70
2018-11-23T17:47:52.029Z,70.60
2018-11-23T17:50:21.957Z,73.80
2018-11-23T17:52:50.871Z,74.00
2018-11-23T17:55:19.091Z,74.10
2018-11-23T17:57:47.749Z,73.00
2018-11-23T18:00:24.682Z,72.20
2018-11-23T18:02:53.664Z,73.00
2018-11-23T18:05:23.014Z,73.60
2018-11-23T18:07:51.436Z,76.60
2018-11-23T18:10:22.941Z,76.00
2018-11-23T18:12:51.349Z,75.70
2018-11-23T18:15:21.868Z,74.10
2018-11-23T18:17:51.044Z,75.00
2018-11-23T18:20:20.473Z,74.10
2018-11-23T18:22:49.424Z,73.10
2018-11-23T18:25:20.758Z,73.70
2018-11-23T18:27:49.393Z,72.90
2018-11-23T18:30:17.545Z,73.80
2018-11-23T18:32:45.904Z,73.30
2018-11-23T18:35:14.045Z,72.70
2018-11-23T18:37:42.181Z,72.00
2018-11-23T18:40:11.460Z,72.60
2018-11-23T18:42:39.592Z,72.80
2018-11-23T18:45:12.216Z,72.50
2018-11-23T18:47:41.139Z,72.00
2018-11-23T18:50:12.431Z,72.30
2018-11-23T18:52:40.665Z,72.50
2018-11-23T18:55:09.912Z,71.50
2018-11-23T18:57:38.192Z,71.00
2018-11-23T19:00:09.462Z,73.00
2018-11-23T19:02:37.600Z,73.50
2018-11-23T19:05:09.503Z,73.50
2018-11-23T19:07:37.665Z,72.50
2018-11-23T19:10:08.397Z,73.50
2018-11-23T19:12:36.578Z,74.50
2018-11-23T19:15:07.400Z,72.50
2018-11-23T19:17:35.674Z,71.90
2018-11-23T19:20:05.474Z,74.70
2018-11-23T19:22:33.774Z,74.00
2018-11-23T19:25:02.032Z,75.20
2018-11-23T19:27:30.205Z,76.40
2018-11-23T19:29:58.381Z,76.80
2018-11-23T19:32:26.592Z,76.90
2018-11-23T19:34:54.717Z,75.90
2018-11-23T19:37:22.883Z,77.20
2018-11-23T19:39:51.018Z,76.20
2018-11-23T19:42:19.147Z,76.50
2018-11-23T19:44:47.484Z,76.50
2018-11-23T19:47:15.977Z,76.70
2018-11-23T19:49:44.360Z,75.80
2018-11-23T19:52:12.519Z,75.30
2018-11-23T19:54:40.654Z,73.00
2018-11-23T19:57:08.942Z,74.90
2018-11-23T19:59:37.073Z,74.80
2018-11-23T20:02:05.219Z,74.00
2018-11-23T20:04:33.436Z,74.80
2018-11-23T20:07:01.592Z,74.10
2018-11-23T20:09:29.799Z,73.40
2018-11-23T20:11:57.925Z,73.00
2018-11-23T20:14:26.151Z,72.50
2018-11-23T20:16:54.397Z,72.40
2018-11-23T20:19:22.509Z,71.70
2018-11-23T20:21:50.819Z,70.80
2018-11-23T20:24:19.006Z,70.30
2018-11-23T20:26:47.228Z,70.10
2018-11-23T20:29:15.389Z,69.70
2018-11-23T20:31:43.516Z,69.70
2018-11-23T20:34:11.648Z,69.70
2018-11-23T20:36:39.781Z,68.60
2018-11-23T20:39:10.345Z,68.40
2018-11-23T20:41:38.749Z,68.20
2018-11-23T20:44:07.135Z,68.10
2018-11-23T20:46:35.736Z,68.30
2018-11-23T20:49:03.878Z,68.30
2018-11-23T20:51:32.000Z,68.40
2018-11-23T20:54:00.159Z,68.50
2018-11-23T20:56:28.300Z,69.20
2018-11-23T20:58:56.456Z,68.90
2018-11-23T21:01:24.597Z,68.90
2018-11-23T21:03:52.724Z,69.20
2018-11-23T21:06:20.904Z,69.10
2018-11-23T21:08:49.032Z,69.60
2018-11-23T21:11:17.136Z,69.60
2018-11-23T21:13:45.353Z,69.10
2018-11-23T21:16:13.453Z,68.70
2018-11-23T21:18:41.636Z,69.20
2018-11-23T21:21:09.737Z,68.70
2018-11-23T21:23:37.973Z,69.30
2018-11-23T21:26:06.228Z,69.80
2018-11-23T21:28:34.348Z,69.50
2018-11-23T21:31:02.477Z,69.60
2018-11-23T21:33:30.584Z,69.10
2018-11-23T21:35:58.672Z,69.90
2018-11-23T21:38:26.804Z,69.50
2018-11-23T21:40:54.912Z,68.80
2018-11-23T21:43:23.024Z,68.40
2018-11-23T21:45:51.152Z,68.20
2018-11-23T21:48:19.293Z,67.10
2018-11-23T21:50:47.403Z,66.90
2018-11-23T21:53:15.491Z,66.50
2018-11-23T21:55:43.639Z,66.70
2018-11-23T21:58:11.764Z,66.80
2018-11-23T22:00:39.941Z,66.30
2018-11-23T22:03:08.072Z,66.60
2018-11-23T22:05:36.171Z,67.20
2018-11-23T22:08:04.473Z,67.50
2018-11-23T22:10:32.577Z,68.10
2018-11-23T22:13:00.721Z,67.30
2018-11-23T22:15:28.881Z,67.50
2018-11-23T22:17:57.414Z,67.80
2018-11-23T22:20:25.969Z,67.70
2018-11-23T22:22:54.073Z,68.00
2018-11-23T22:25:22.938Z,68.30
2018-11-23T22:27:51.099Z,68.60
2018-11-23T22:30:22.828Z,68.50
2018-11-23T22:32:50.938Z,68.50
2018-11-23T22:35:19.048Z,68.40
2018-11-23T22:37:47.173Z,68.50
2018-11-23T22:40:18.044Z,68.10
2018-11-23T22:42:46.117Z,68.10
2018-11-23T22:45:15.409Z,68.30
2018-11-23T22:47:43.551Z,68.50
2018-11-23T22:50:14.094Z,68.30
2018-11-23T22:52:42.245Z,68.60
2018-11-23T22:55:11.380Z,68.70
2018-11-23T22:57:39.485Z,68.50
2018-11-23T23:00:11.124Z,68.70
2018-11-23T23:02:39.282Z,68.60
2018-11-23T23:05:07.646Z,68.10
2018-11-23T23:07:35.760Z,67.80
2018-11-23T23:10:04.233Z,68.10
2018-11-23T23:12:32.341Z,68.00
2018-11-23T23:15:00.489Z,67.80
2018-11-23T23:17:28.646Z,67.40
2018-11-23T23:19:56.765Z,67.90
2018-11-23T23:22:24.983Z,67.30
2018-11-23T23:24:53.068Z,67.40
2018-11-23T23:27:21.177Z,67.00
2018-11-23T23:29:49.317Z,67.10
2018-11-23T23:32:17.427Z,67.40
2018-11-23T23:34:45.532Z,67.60
2018-11-23T23:37:13.657Z,67.60
2018-11-23T23:39:41.811Z,67.60
2018-11-23T23:42:09.915Z,67.00
2018-11-23T23:47:12.618Z,67.40
2018-11-23T23:49:40.743Z,67.40
2018-11-23T23:52:09.065Z,67.50
2018-11-23T23:54:37.185Z,67.40
2018-11-23T23:57:05.340Z,67.60
2018-11-23T23:59:33.449Z,66.90
